Time;durP1;ratioP1;P1;durP2;ratioP2;P2;SDS_P1;SDS_P2;PMS_P1;PMS_P2;Temp;Humidity;BMP_temperature;BMP_pressure;BME280_temperature;BME280_humidity;BME280_pressure;Samples;Min_cycle;Max_cycle;Signal;HPM_P1;HPM_P2
2023/08/09 00:02:02;;;;;;;5.53;2.53;;;;;;;;;;5009824;28;20029;-77
2023/08/09 00:04:28;;;;;;;5.78;1.55;;;;;;;;;;5024964;28;20525;-79
2023/08/09 00:06:54;;;;;;;4.38;1.80;;;;;;;;;;4996304;28;20034;-78
2023/08/09 00:09:20;;;;;;;4.20;2.70;;;;;;;;;;4990511;28;20451;-78
2023/08/09 00:11:46;;;;;;;7.60;2.20;;;;;;;;;;5001894;28;20448;-78
2023/08/09 00:14:12;;;;;;;6.47;1.67;;;;;;;;;;5008278;28;20053;-81
2023/08/09 00:16:38;;;;;;;7.80;2.25;;;;;;;;;;5010338;28;20030;-77
2023/08/09 00:19:05;;;;;;;10.05;2.33;;;;;;;;;;5009925;28;20061;-78
2023/08/09 00:21:31;;;;;;;2.78;1.48;;;;;;;;;;5008645;28;20026;-78
2023/08/09 00:23:57;;;;;;;4.03;1.73;;;;;;;;;;5008546;28;20493;-78
2023/08/09 00:26:23;;;;;;;1.73;1.30;;;;;;;;;;5024912;28;20033;-78
2023/08/09 00:28:48;;;;;;;2.63;0.98;;;;;;;;;;5024887;28;20037;-78
2023/08/09 00:31:14;;;;;;;2.15;1.20;;;;;;;;;;5009991;28;20026;-78
2023/08/09 00:33:39;;;;;;;3.35;1.27;;;;;;;;;;5009847;28;20078;-78
2023/08/09 00:36:05;;;;;;;4.32;1.40;;;;;;;;;;5025347;28;20022;-78
2023/08/09 00:38:30;;;;;;;2.05;1.27;;;;;;;;;;5008806;28;20040;-78
2023/08/09 00:40:56;;;;;;;1.33;1.13;;;;;;;;;;5010055;28;20377;-78
2023/08/09 00:43:21;;;;;;;3.90;1.10;;;;;;;;;;5024886;28;20076;-78
2023/08/09 00:45:48;;;;;;;3.33;1.10;;;;;;;;;;5009461;28;20076;-79
2023/08/09 00:48:14;;;;;;;4.60;1.92;;;;;;;;;;5009787;28;20057;-78
2023/08/09 00:50:40;;;;;;;4.10;1.33;;;;;;;;;;5008464;28;20088;-78
2023/08/09 00:53:06;;;;;;;5.45;1.00;;;;;;;;;;5011264;28;20044;-79
2023/08/09 00:55:33;;;;;;;3.38;1.48;;;;;;;;;;5014332;28;20029;-78
2023/08/09 00:57:58;;;;;;;1.10;0.80;;;;;;;;;;5013955;28;20530;-78
2023/08/09 01:00:24;;;;;;;1.50;1.02;;;;;;;;;;5028747;28;20216;-79
2023/08/09 01:02:50;;;;;;;1.63;1.10;;;;;;;;;;5013761;28;20137;-78
2023/08/09 01:05:15;;;;;;;2.20;1.08;;;;;;;;;;5012089;28;20433;-78
2023/08/09 01:07:52;;;;;;;3.22;1.30;;;;;;;;;;5013575;28;20072;-78
2023/08/09 01:10:38;;;;;;;1.88;1.23;;;;;;;;;;5013781;28;20041;-78
2023/08/09 01:13:06;;;;;;;2.35;1.38;;;;;;;;;;5011721;28;20064;-79
2023/08/09 01:15:38;;;;;;;2.60;1.08;;;;;;;;;;5013481;28;20053;-78
2023/08/09 01:18:06;;;;;;;1.95;1.05;;;;;;;;;;5012142;28;20375;-78
2023/08/09 01:20:33;;;;;;;3.47;1.48;;;;;;;;;;5028466;28;20026;-79
2023/08/09 01:23:19;;;;;;;1.48;1.20;;;;;;;;;;5009752;28;20022;-79
2023/08/09 01:25:45;;;;;;;2.50;1.48;;;;;;;;;;4992369;28;20033;-78
2023/08/09 01:28:14;;;;;;;2.25;1.55;;;;;;;;;;4993283;28;20529;-77
2023/08/09 01:30:40;;;;;;;1.85;1.30;;;;;;;;;;4992597;28;20514;-80
2023/08/09 01:33:05;;;;;;;1.80;1.30;;;;;;;;;;4991944;28;20117;-78
2023/08/09 01:35:38;;;;;;;2.17;1.33;;;;;;;;;;4992317;28;20072;-78
2023/08/09 01:38:13;;;;;;;1.40;1.30;;;;;;;;;;4993803;28;20374;-79
2023/08/09 01:40:39;;;;;;;3.72;1.42;;;;;;;;;;4993854;28;20224;-78
2023/08/09 01:43:05;;;;;;;11.57;4.00;;;;;;;;;;4992059;28;20033;-79
2023/08/09 01:45:31;;;;;;;4.90;1.55;;;;;;;;;;4993902;28;20030;-78
2023/08/09 01:47:57;;;;;;;2.60;1.40;;;;;;;;;;4993183;28;20151;-79
2023/08/09 01:50:26;;;;;;;6.57;2.03;;;;;;;;;;4993196;28;20109;-79
2023/08/09 01:52:55;;;;;;;2.00;1.80;;;;;;;;;;4991918;28;20107;-78
2023/08/09 01:55:22;;;;;;;7.80;1.58;;;;;;;;;;4991987;28;20098;-78
2023/08/09 01:57:49;;;;;;;4.32;1.60;;;;;;;;;;4991878;28;20030;-79
2023/08/09 02:00:17;;;;;;;2.55;1.25;;;;;;;;;;4991329;28;20034;-80
2023/08/09 02:02:44;;;;;;;2.85;1.25;;;;;;;;;;4992275;28;20057;-78
2023/08/09 02:05:10;;;;;;;1.83;1.15;;;;;;;;;;4991343;28;20158;-78
2023/08/09 02:07:36;;;;;;;2.55;1.35;;;;;;;;;;4991564;28;20030;-78
2023/08/09 02:10:02;;;;;;;2.50;1.40;;;;;;;;;;5007726;28;20030;-79
2023/08/09 02:12:28;;;;;;;2.58;1.50;;;;;;;;;;4992567;28;20034;-78
2023/08/09 02:14:53;;;;;;;3.78;1.17;;;;;;;;;;4992396;28;20065;-78
2023/08/09 02:17:19;;;;;;;2.38;1.38;;;;;;;;;;4991050;28;20034;-78
2023/08/09 02:19:44;;;;;;;3.35;1.30;;;;;;;;;;4992805;28;20030;-79
2023/08/09 02:22:10;;;;;;;1.20;1.10;;;;;;;;;;4991095;28;20390;-78
2023/08/09 02:24:36;;;;;;;2.63;1.35;;;;;;;;;;4992324;28;20038;-79
2023/08/09 02:27:01;;;;;;;3.13;1.40;;;;;;;;;;4992511;28;20397;-79
2023/08/09 02:29:27;;;;;;;2.50;1.30;;;;;;;;;;4992179;28;20069;-79
2023/08/09 02:31:54;;;;;;;1.88;1.50;;;;;;;;;;4992617;28;20521;-78
2023/08/09 02:34:19;;;;;;;6.20;1.88;;;;;;;;;;4992224;28;20038;-79
2023/08/09 02:36:46;;;;;;;2.85;1.60;;;;;;;;;;4992761;28;20084;-78
2023/08/09 02:39:12;;;;;;;3.33;1.48;;;;;;;;;;4991131;28;20117;-79
2023/08/09 02:41:42;;;;;;;5.50;2.00;;;;;;;;;;4991331;28;20200;-78
2023/08/09 02:44:08;;;;;;;7.00;3.20;;;;;;;;;;4991141;28;20524;-79
2023/08/09 02:46:33;;;;;;;2.50;1.38;;;;;;;;;;4992330;28;20062;-79
2023/08/09 02:48:59;;;;;;;2.38;1.10;;;;;;;;;;4990824;28;20038;-78
2023/08/09 02:51:24;;;;;;;1.60;1.05;;;;;;;;;;4991106;28;20041;-78
2023/08/09 02:54:02;;;;;;;1.85;1.23;;;;;;;;;;4991170;28;20147;-79
2023/08/09 02:56:29;;;;;;;2.35;1.38;;;;;;;;;;4974439;28;20038;-78
2023/08/09 02:58:54;;;;;;;2.90;1.50;;;;;;;;;;4992344;28;20109;-78
2023/08/09 03:01:21;;;;;;;2.72;1.40;;;;;;;;;;4991792;28;20109;-78
2023/08/09 03:03:48;;;;;;;4.05;1.50;;;;;;;;;;4990739;28;20446;-78
2023/08/09 03:06:14;;;;;;;6.95;1.70;;;;;;;;;;4990349;28;20026;-78
2023/08/09 03:08:39;;;;;;;6.50;1.25;;;;;;;;;;4992274;28;20572;-78
2023/08/09 03:11:05;;;;;;;4.05;1.40;;;;;;;;;;4990196;28;20073;-79
2023/08/09 03:13:30;;;;;;;2.80;1.52;;;;;;;;;;4991405;28;20036;-78
2023/08/09 03:15:56;;;;;;;8.00;2.03;;;;;;;;;;4989383;28;20037;-79
2023/08/09 03:18:21;;;;;;;2.55;1.35;;;;;;;;;;4991512;28;20026;-78
2023/08/09 03:20:47;;;;;;;9.73;1.88;;;;;;;;;;4990439;28;20049;-79
2023/08/09 03:23:13;;;;;;;3.15;1.40;;;;;;;;;;4990101;28;20543;-78
2023/08/09 03:25:39;;;;;;;3.63;1.27;;;;;;;;;;4990261;28;20093;-78
2023/08/09 03:28:04;;;;;;;5.63;1.20;;;;;;;;;;4991490;28;20053;-78
2023/08/09 03:30:30;;;;;;;8.23;1.40;;;;;;;;;;4991510;28;20061;-78
2023/08/09 03:32:55;;;;;;;2.72;1.25;;;;;;;;;;4990402;28;20350;-78
2023/08/09 03:35:21;;;;;;;3.92;1.30;;;;;;;;;;4991246;28;20081;-78
2023/08/09 03:37:46;;;;;;;1.10;1.02;;;;;;;;;;4990294;28;20406;-77
2023/08/09 03:40:12;;;;;;;2.55;1.40;;;;;;;;;;4990906;28;20033;-78
2023/08/09 03:42:42;;;;;;;2.25;1.45;;;;;;;;;;4989804;28;20037;-78
2023/08/09 03:45:08;;;;;;;7.38;1.50;;;;;;;;;;4991380;28;20085;-79
2023/08/09 03:47:33;;;;;;;3.40;1.25;;;;;;;;;;4990733;28;20057;-79
2023/08/09 03:49:59;;;;;;;4.00;1.45;;;;;;;;;;4990864;28;20478;-78
2023/08/09 03:52:25;;;;;;;4.72;1.90;;;;;;;;;;4989433;28;20070;-79
2023/08/09 03:54:52;;;;;;;3.58;1.90;;;;;;;;;;4991434;28;20136;-78
2023/08/09 03:57:21;;;;;;;2.10;1.52;;;;;;;;;;4990555;28;20088;-79
2023/08/09 03:59:47;;;;;;;8.15;2.00;;;;;;;;;;4990690;28;20081;-79
2023/08/09 04:02:13;;;;;;;2.40;1.88;;;;;;;;;;4989641;28;20172;-79
2023/08/09 04:04:39;;;;;;;2.65;1.60;;;;;;;;;;4989596;28;20117;-77
2023/08/09 04:07:06;;;;;;;5.22;2.40;;;;;;;;;;4989850;28;20474;-79
2023/08/09 04:09:32;;;;;;;6.30;2.60;;;;;;;;;;4990647;28;20062;-79
2023/08/09 04:11:59;;;;;;;3.92;1.92;;;;;;;;;;4989363;28;20128;-78
2023/08/09 04:14:25;;;;;;;6.00;2.22;;;;;;;;;;4989040;28;20534;-81
2023/08/09 04:16:51;;;;;;;8.73;4.05;;;;;;;;;;4990594;28;20061;-79
2023/08/09 04:19:16;;;;;;;7.05;3.22;;;;;;;;;;4990469;28;20061;-78
2023/08/09 04:21:42;;;;;;;4.97;2.50;;;;;;;;;;4989155;28;20218;-79
2023/08/09 04:24:09;;;;;;;2.88;2.13;;;;;;;;;;5000224;28;20478;-79
2023/08/09 04:26:36;;;;;;;5.88;2.92;;;;;;;;;;5024168;28;20370;-78
2023/08/09 04:29:02;;;;;;;6.78;2.67;;;;;;;;;;5008476;28;20037;-78
2023/08/09 04:31:28;;;;;;;6.10;3.20;;;;;;;;;;5008297;28;20064;-79
2023/08/09 04:33:54;;;;;;;5.00;2.50;;;;;;;;;;5009750;28;20061;-79
2023/08/09 04:36:20;;;;;;;6.03;2.60;;;;;;;;;;4990838;28;20189;-78
2023/08/09 04:38:45;;;;;;;4.93;2.58;;;;;;;;;;4988976;28;20438;-79
2023/08/09 04:41:12;;;;;;;6.35;3.17;;;;;;;;;;4989003;28;20049;-81
2023/08/09 04:43:42;;;;;;;3.35;2.10;;;;;;;;;;4988854;28;20030;-78
2023/08/09 04:46:08;;;;;;;3.97;2.28;;;;;;;;;;4988550;28;20034;-79
2023/08/09 04:48:33;;;;;;;3.65;2.30;;;;;;;;;;4989546;28;20022;-78
2023/08/09 04:50:59;;;;;;;5.50;2.42;;;;;;;;;;4990508;28;20038;-79
2023/08/09 04:53:24;;;;;;;4.55;2.17;;;;;;;;;;4988767;28;20181;-79
2023/08/09 04:55:50;;;;;;;3.85;2.20;;;;;;;;;;4988814;28;20104;-80
2023/08/09 04:58:17;;;;;;;4.68;1.90;;;;;;;;;;4989725;28;20038;-80
2023/08/09 05:00:42;;;;;;;5.72;2.30;;;;;;;;;;4988865;28;20494;-80
2023/08/09 05:03:08;;;;;;;5.40;2.28;;;;;;;;;;4990307;28;20038;-77
2023/08/09 05:05:33;;;;;;;4.47;2.35;;;;;;;;;;4987846;28;20066;-79
2023/08/09 05:08:00;;;;;;;2.22;1.92;;;;;;;;;;4990154;28;20026;-78
2023/08/09 05:10:26;;;;;;;2.72;1.95;;;;;;;;;;4990155;28;20050;-80
2023/08/09 05:12:51;;;;;;;4.30;2.53;;;;;;;;;;4990081;28;20057;-79
2023/08/09 05:15:17;;;;;;;6.53;3.35;;;;;;;;;;4989727;28;20058;-80
2023/08/09 05:17:42;;;;;;;3.42;2.28;;;;;;;;;;4989651;28;20061;-80
2023/08/09 05:20:10;;;;;;;3.20;2.10;;;;;;;;;;5004562;28;20038;-79
2023/08/09 05:22:35;;;;;;;5.57;2.20;;;;;;;;;;5020805;28;20184;-80
2023/08/09 05:25:01;;;;;;;6.50;2.90;;;;;;;;;;4988184;28;20030;-79
2023/08/09 05:27:27;;;;;;;4.53;2.22;;;;;;;;;;4990753;28;20038;-78
2023/08/09 05:29:52;;;;;;;4.28;3.03;;;;;;;;;;5024864;28;20458;-78
2023/08/09 05:32:18;;;;;;;3.35;2.20;;;;;;;;;;5008429;28;20397;-79
2023/08/09 05:34:45;;;;;;;6.10;2.33;;;;;;;;;;5008444;28;20030;-78
2023/08/09 05:37:10;;;;;;;3.85;1.95;;;;;;;;;;5009921;28;20473;-77
2023/08/09 05:39:35;;;;;;;6.13;2.83;;;;;;;;;;5028248;28;20101;-79
2023/08/09 05:42:03;;;;;;;4.80;2.58;;;;;;;;;;5011579;28;20536;-78
2023/08/09 05:44:28;;;;;;;3.00;2.40;;;;;;;;;;4992261;28;20068;-79
2023/08/09 05:46:54;;;;;;;7.30;2.63;;;;;;;;;;4992764;28;20058;-79
2023/08/09 05:49:20;;;;;;;6.53;3.33;;;;;;;;;;4999928;28;20117;-78
2023/08/09 05:51:45;;;;;;;6.53;2.55;;;;;;;;;;4993495;28;20424;-80
2023/08/09 05:54:11;;;;;;;5.63;3.47;;;;;;;;;;5006331;28;20036;-79
2023/08/09 05:56:37;;;;;;;5.50;2.50;;;;;;;;;;5011378;28;20470;-80
2023/08/09 05:59:04;;;;;;;8.20;2.70;;;;;;;;;;5013460;28;20530;-80
2023/08/09 06:01:29;;;;;;;4.93;2.55;;;;;;;;;;5012760;28;20026;-80
2023/08/09 06:03:55;;;;;;;7.28;2.67;;;;;;;;;;5015909;28;20391;-78
2023/08/09 06:06:21;;;;;;;3.88;2.47;;;;;;;;;;4993033;28;20066;-78
2023/08/09 06:08:46;;;;;;;4.13;3.10;;;;;;;;;;5018840;28;20133;-78
2023/08/09 06:11:13;;;;;;;5.57;2.78;;;;;;;;;;5009095;28;20037;-79
2023/08/09 06:13:38;;;;;;;3.38;2.40;;;;;;;;;;5010743;28;20077;-79
2023/08/09 06:16:04;;;;;;;4.45;2.53;;;;;;;;;;5027396;28;20123;-79
2023/08/09 06:18:31;;;;;;;4.28;3.03;;;;;;;;;;5007649;28;20026;-79
2023/08/09 06:20:56;;;;;;;4.82;2.33;;;;;;;;;;5007343;28;20022;-78
2023/08/09 06:23:22;;;;;;;4.47;3.17;;;;;;;;;;5004236;28;20037;-78
2023/08/09 06:25:49;;;;;;;5.18;2.33;;;;;;;;;;4997637;28;20479;-78
2023/08/09 06:28:16;;;;;;;6.47;3.42;;;;;;;;;;5002069;28;20482;-78
2023/08/09 06:30:42;;;;;;;3.08;2.67;;;;;;;;;;5009732;28;20034;-83
2023/08/09 06:33:08;;;;;;;5.93;2.47;;;;;;;;;;5007127;28;20049;-80
2023/08/09 06:35:34;;;;;;;6.30;3.30;;;;;;;;;;5010260;28;20034;-82
2023/08/09 06:37:59;;;;;;;7.80;3.63;;;;;;;;;;5023102;28;20030;-83
2023/08/09 06:40:25;;;;;;;4.53;2.92;;;;;;;;;;5006217;28;20045;-77
2023/08/09 06:42:50;;;;;;;8.70;2.80;;;;;;;;;;5029969;28;20029;-78
2023/08/09 06:45:16;;;;;;;5.28;2.53;;;;;;;;;;5014917;28;20068;-78
2023/08/09 06:47:42;;;;;;;5.50;3.38;;;;;;;;;;5001037;28;20045;-80
2023/08/09 06:50:08;;;;;;;6.78;2.78;;;;;;;;;;5006694;28;20037;-78
2023/08/09 06:52:37;;;;;;;4.40;2.67;;;;;;;;;;5011141;28;20041;-82
2023/08/09 06:55:04;;;;;;;3.88;2.72;;;;;;;;;;5017074;28;20048;-79
2023/08/09 06:57:32;;;;;;;9.93;3.10;;;;;;;;;;5006135;28;20117;-80
2023/08/09 06:59:57;;;;;;;5.15;2.10;;;;;;;;;;5025372;28;20030;-77
2023/08/09 07:02:29;;;;;;;4.55;3.45;;;;;;;;;;5008043;28;20172;-79
2023/08/09 07:05:15;;;;;;;4.60;3.00;;;;;;;;;;5013158;28;20042;-77
2023/08/09 07:08:28;;;;;;;;;;;;;;;;;;;;;
2023/08/09 07:18:15;;;;;;;4.00;2.30;;;;;;;;;;4827022;29;20035;-79
2023/08/09 07:21:32;;;;;;;7.47;2.88;;;;;;;;;;4838224;29;20060;-79
2023/08/09 07:28:01;;;;;;;6.03;2.50;;;;;;;;;;4794158;30;20045;-80
2023/08/09 07:35:22;;;;;;;;;;;;;;;;;;;;;
2023/08/09 07:41:25;;;;;;;2.90;2.30;;;;;;;;;;4881546;29;20103;-80
2023/08/09 08:12:29;;;;;;;;;;;;;;;;;;;;;
2023/08/09 08:15:56;;;;;;;;;;;;;;;;;;;;;
2023/08/09 08:54:43;;;;;;;;;;;;;;;;;;;;;
2023/08/09 08:57:44;;;;;;;2.22;1.15;;;;;;;;;;4865179;29;20123;-78
2023/08/09 09:00:16;;;;;;;2.65;1.60;;;;;;;;;;4953313;28;20498;-79
2023/08/09 09:03:10;;;;;;;1.77;1.42;;;;;;;;;;4970320;28;20095;-79
2023/08/09 09:05:49;;;;;;;1.77;1.63;;;;;;;;;;4933540;28;20046;-82
2023/08/09 09:08:37;;;;;;;;;;;;;;;;;;;;;
2023/08/09 09:11:54;;;;;;;1.75;1.50;;;;;;;;;;4997000;28;20483;-82
2023/08/09 09:14:49;;;;;;;2.22;1.50;;;;;;;;;;4932229;28;20043;-81
2023/08/09 09:17:59;;;;;;;3.20;1.55;;;;;;;;;;4996386;28;20049;-83
2023/08/09 09:24:09;;;;;;;2.42;2.00;;;;;;;;;;4995688;23;20471;-77
2023/08/09 09:26:37;;;;;;;2.40;1.63;;;;;;;;;;5025805;28;20081;-78
2023/08/09 09:29:08;;;;;;;2.33;1.08;;;;;;;;;;5022898;28;20060;-77
2023/08/09 09:31:36;;;;;;;1.65;0.90;;;;;;;;;;5039578;28;20472;-79
2023/08/09 09:34:06;;;;;;;0.73;0.68;;;;;;;;;;5029809;28;20037;-77
2023/08/09 09:36:32;;;;;;;1.38;0.70;;;;;;;;;;5032274;28;20044;-79
2023/08/09 09:38:59;;;;;;;4.35;1.75;;;;;;;;;;5017213;28;20041;-79
2023/08/09 09:41:25;;;;;;;2.40;0.50;;;;;;;;;;5018993;28;20065;-78
2023/08/09 09:43:51;;;;;;;1.30;0.77;;;;;;;;;;5027345;28;20454;-78
2023/08/09 09:46:20;;;;;;;0.98;0.60;;;;;;;;;;5016060;28;20104;-77
2023/08/09 09:48:48;;;;;;;2.28;1.20;;;;;;;;;;5019062;28;20458;-76
2023/08/09 09:51:19;;;;;;;3.83;1.10;;;;;;;;;;5021392;28;20095;-78
2023/08/09 09:53:46;;;;;;;2.00;1.40;;;;;;;;;;5017887;28;20382;-78
2023/08/09 09:56:13;;;;;;;3.22;1.30;;;;;;;;;;5038182;28;20029;-76
2023/08/09 09:58:40;;;;;;;2.03;0.80;;;;;;;;;;5034423;28;20104;-79
2023/08/09 10:01:09;;;;;;;1.30;0.80;;;;;;;;;;5022786;28;20048;-76
2023/08/09 10:03:38;;;;;;;1.13;0.70;;;;;;;;;;5032964;28;20025;-78
2023/08/09 10:06:08;;;;;;;1.60;0.77;;;;;;;;;;5007587;28;20029;-78
2023/08/09 10:08:36;;;;;;;0.50;0.50;;;;;;;;;;5016169;28;20063;-76
2023/08/09 10:11:03;;;;;;;1.77;1.33;;;;;;;;;;5031153;28;20029;-78
2023/08/09 10:13:32;;;;;;;1.70;0.50;;;;;;;;;;5014576;28;20531;-77
2023/08/09 10:16:03;;;;;;;0.77;0.73;;;;;;;;;;5049712;28;20040;-77
2023/08/09 10:18:35;;;;;;;0.40;0.40;;;;;;;;;;5031490;28;20010;-79
2023/08/09 10:21:03;;;;;;;0.38;0.38;;;;;;;;;;5040575;28;20033;-77
2023/08/09 10:23:29;;;;;;;1.45;0.38;;;;;;;;;;5027963;28;20048;-77
2023/08/09 10:25:56;;;;;;;3.85;0.50;;;;;;;;;;5021850;28;20077;-78
2023/08/09 10:28:47;;;;;;;1.35;0.52;;;;;;;;;;5020698;28;20859;-77
2023/08/09 10:31:14;;;;;;;1.73;0.43;;;;;;;;;;5030027;28;20048;-79
2023/08/09 10:34:06;;;;;;;2.83;0.43;;;;;;;;;;5021897;28;20037;-77
2023/08/09 10:36:32;;;;;;;;;;;;;;;;;;5011257;28;20037;-76
2023/08/09 10:38:58;;;;;;;0.43;0.40;;;;;;;;;;5023545;28;19917;-77
2023/08/09 10:41:26;;;;;;;2.33;0.40;;;;;;;;;;5014062;28;20478;-77
2023/08/09 10:44:01;;;;;;;2.95;0.40;;;;;;;;;;5033474;28;20055;-78
2023/08/09 10:46:27;;;;;;;1.05;0.32;;;;;;;;;;5033353;28;20511;-78
2023/08/09 10:49:01;;;;;;;0.63;0.55;;;;;;;;;;5039392;28;20033;-77
2023/08/09 10:51:27;;;;;;;0.50;0.30;;;;;;;;;;5010242;28;20083;-77
2023/08/09 10:54:00;;;;;;;1.63;0.50;;;;;;;;;;5000751;28;20145;-78
2023/08/09 10:56:31;;;;;;;1.92;0.50;;;;;;;;;;5028357;28;20104;-77
2023/08/09 10:59:09;;;;;;;0.57;0.28;;;;;;;;;;5012905;28;20025;-78
2023/08/09 11:01:36;;;;;;;1.30;0.47;;;;;;;;;;5007627;28;20065;-75
2023/08/09 11:04:07;;;;;;;1.10;0.50;;;;;;;;;;5015824;28;20037;-76
2023/08/09 11:06:38;;;;;;;4.80;0.65;;;;;;;;;;5010508;28;20029;-76
2023/08/09 11:09:11;;;;;;;1.67;0.30;;;;;;;;;;5038580;28;20025;-76
2023/08/09 11:11:40;;;;;;;1.15;0.40;;;;;;;;;;5019091;28;20045;-77
2023/08/09 11:14:10;;;;;;;0.45;0.40;;;;;;;;;;5023748;28;20065;-77
2023/08/09 11:16:36;;;;;;;1.50;0.40;;;;;;;;;;5038242;28;20071;-77
2023/08/09 11:19:07;;;;;;;3.95;0.80;;;;;;;;;;5035120;28;20017;-75
2023/08/09 11:21:43;;;;;;;;;;;;;;;;;;5041231;28;20033;-78
2023/08/09 11:24:10;;;;;;;1.27;0.35;;;;;;;;;;5021094;28;19921;-77
2023/08/09 11:26:48;;;;;;;0.75;0.50;;;;;;;;;;5046554;28;20029;-77
2023/08/09 11:29:15;;;;;;;1.17;0.68;;;;;;;;;;5025508;28;20045;-78
2023/08/09 11:31:46;;;;;;;0.77;0.40;;;;;;;;;;5021095;28;20095;-76
2023/08/09 11:34:14;;;;;;;8.90;7.22;;;;;;;;;;5032173;28;20052;-76
2023/08/09 11:36:41;;;;;;;0.93;0.60;;;;;;;;;;5031262;28;20029;-76
2023/08/09 11:39:09;;;;;;;0.40;0.40;;;;;;;;;;5027198;28;20033;-77
2023/08/09 11:41:48;;;;;;;0.98;0.68;;;;;;;;;;5036456;28;20068;-76
2023/08/09 11:44:14;;;;;;;1.77;0.60;;;;;;;;;;5029715;28;20030;-78
2023/08/09 11:46:45;;;;;;;2.10;0.70;;;;;;;;;;5032133;28;20215;-76
2023/08/09 11:49:11;;;;;;;1.08;0.65;;;;;;;;;;5030197;28;20037;-76
2023/08/09 11:51:38;;;;;;;1.38;0.70;;;;;;;;;;5031074;28;20025;-78
2023/08/09 11:54:08;;;;;;;1.33;1.00;;;;;;;;;;5035594;28;20017;-79
2023/08/09 11:56:35;;;;;;;2.50;1.10;;;;;;;;;;5013850;28;20063;-76
2023/08/09 11:59:05;;;;;;;1.55;0.82;;;;;;;;;;5020332;28;20030;-76
2023/08/09 12:01:37;;;;;;;0.85;0.68;;;;;;;;;;5024816;28;20108;-77
2023/08/09 12:04:09;;;;;;;0.98;0.65;;;;;;;;;;5032797;28;20052;-78
2023/08/09 12:06:44;;;;;;;2.45;0.88;;;;;;;;;;5029499;28;20029;-75
2023/08/09 12:09:36;;;;;;;0.60;0.60;;;;;;;;;;5016193;28;20044;-77
2023/08/09 12:12:18;;;;;;;2.53;0.68;;;;;;;;;;5034654;28;20107;-77
2023/08/09 12:14:52;;;;;;;1.52;0.70;;;;;;;;;;5013450;28;20037;-77
2023/08/09 12:17:23;;;;;;;3.08;0.85;;;;;;;;;;5021189;28;20064;-76
2023/08/09 12:19:50;;;;;;;15.77;2.08;;;;;;;;;;5012747;28;20478;-77
2023/08/09 12:22:16;;;;;;;1.15;0.52;;;;;;;;;;5017135;28;20067;-76
2023/08/09 12:24:42;;;;;;;2.53;0.68;;;;;;;;;;5025839;28;20054;-77
2023/08/09 12:27:11;;;;;;;1.13;0.57;;;;;;;;;;5040847;28;20103;-75
2023/08/09 12:29:38;;;;;;;2.92;0.82;;;;;;;;;;5029177;28;20025;-76
2023/08/09 12:32:04;;;;;;;1.70;0.90;;;;;;;;;;5015320;28;20082;-77
2023/08/09 12:34:30;;;;;;;4.25;1.27;;;;;;;;;;5038590;28;20025;-76
2023/08/09 12:36:56;;;;;;;4.80;1.15;;;;;;;;;;5017890;28;20033;-76
2023/08/09 12:39:22;;;;;;;2.33;1.20;;;;;;;;;;5010790;28;20033;-74
2023/08/09 12:41:50;;;;;;;3.80;0.90;;;;;;;;;;5035623;28;20029;-76
2023/08/09 12:44:16;;;;;;;5.65;1.70;;;;;;;;;;5014552;28;20029;-76
2023/08/09 12:46:43;;;;;;;2.25;1.23;;;;;;;;;;5025659;28;20750;-76
2023/08/09 12:49:09;;;;;;;1.55;1.10;;;;;;;;;;5030360;28;20038;-76
2023/08/09 12:51:38;;;;;;;1.10;1.00;;;;;;;;;;5013571;28;20049;-76
2023/08/09 12:54:04;;;;;;;1.85;1.33;;;;;;;;;;5009881;28;20842;-75
2023/08/09 12:56:31;;;;;;;1.88;1.00;;;;;;;;;;5021568;28;20033;-79
2023/08/09 12:58:57;;;;;;;1.00;0.90;;;;;;;;;;5029653;28;20389;-77
2023/08/09 13:01:23;;;;;;;5.00;1.00;;;;;;;;;;5008888;28;20026;-76
2023/08/09 13:03:49;;;;;;;0.77;0.60;;;;;;;;;;5022603;28;20028;-77
2023/08/09 13:06:15;;;;;;;1.05;0.80;;;;;;;;;;5039076;28;20022;-76
2023/08/09 13:08:41;;;;;;;1.13;0.90;;;;;;;;;;5027684;28;20029;-77
2023/08/09 13:11:07;;;;;;;0.95;0.93;;;;;;;;;;5021400;28;20905;-79
2023/08/09 13:13:33;;;;;;;2.63;0.80;;;;;;;;;;5007868;28;20033;-77
2023/08/09 13:16:01;;;;;;;0.77;0.68;;;;;;;;;;5033044;28;20036;-76
2023/08/09 13:18:30;;;;;;;1.58;0.98;;;;;;;;;;5031910;28;20500;-77
2023/08/09 13:20:58;;;;;;;1.30;0.80;;;;;;;;;;5022073;28;20477;-76
2023/08/09 13:23:27;;;;;;;1.35;1.08;;;;;;;;;;5032186;28;20478;-76
2023/08/09 13:25:54;;;;;;;1.65;0.90;;;;;;;;;;5028468;28;20057;-75
2023/08/09 13:28:20;;;;;;;0.68;0.68;;;;;;;;;;5026881;28;20052;-77
2023/08/09 13:30:45;;;;;;;4.13;0.85;;;;;;;;;;5026274;28;20489;-76
2023/08/09 13:33:14;;;;;;;0.70;0.70;;;;;;;;;;5024841;28;20438;-76
2023/08/09 13:35:42;;;;;;;1.00;0.90;;;;;;;;;;5005899;28;20030;-76
2023/08/09 13:38:23;;;;;;;0.93;0.60;;;;;;;;;;5021788;28;20112;-76
2023/08/09 13:40:49;;;;;;;0.95;0.50;;;;;;;;;;5008925;28;20052;-76
2023/08/09 13:43:17;;;;;;;1.17;0.80;;;;;;;;;;5001727;28;20108;-76
2023/08/09 13:45:43;;;;;;;0.98;0.82;;;;;;;;;;5005392;28;20022;-75
2023/08/09 13:48:09;;;;;;;2.33;0.88;;;;;;;;;;5000714;28;20419;-78
2023/08/09 13:50:35;;;;;;;2.42;1.00;;;;;;;;;;5024295;28;20069;-77
2023/08/09 13:53:02;;;;;;;4.25;0.85;;;;;;;;;;5024586;28;20748;-77
2023/08/09 13:55:28;;;;;;;3.25;1.20;;;;;;;;;;5027009;28;20528;-77
2023/08/09 13:57:53;;;;;;;1.58;1.00;;;;;;;;;;5015603;28;20029;-76
2023/08/09 14:00:19;;;;;;;1.02;0.70;;;;;;;;;;5026283;28;20083;-75
2023/08/09 14:02:45;;;;;;;2.08;0.80;;;;;;;;;;5022898;28;20037;-77
2023/08/09 14:05:15;;;;;;;0.88;0.85;;;;;;;;;;5005435;28;20033;-76
2023/08/09 14:07:41;;;;;;;1.23;0.98;;;;;;;;;;5019361;28;20533;-76
2023/08/09 14:10:08;;;;;;;1.13;0.95;;;;;;;;;;5031554;28;20061;-76
2023/08/09 14:12:34;;;;;;;1.30;0.73;;;;;;;;;;5020799;28;20695;-75
2023/08/09 14:15:00;;;;;;;1.20;0.70;;;;;;;;;;5029718;28;20021;-77
2023/08/09 14:17:26;;;;;;;1.02;0.60;;;;;;;;;;5024991;28;20041;-77
2023/08/09 14:19:52;;;;;;;1.35;0.68;;;;;;;;;;5029365;28;20025;-76
2023/08/09 14:22:18;;;;;;;0.80;0.77;;;;;;;;;;5018108;28;20036;-78
2023/08/09 14:24:44;;;;;;;3.40;1.10;;;;;;;;;;5033558;28;20052;-76
2023/08/09 14:27:09;;;;;;;1.70;1.15;;;;;;;;;;5042278;28;20036;-76
2023/08/09 14:29:42;;;;;;;2.42;1.13;;;;;;;;;;5033318;28;20556;-76
2023/08/09 14:32:10;;;;;;;1.77;0.88;;;;;;;;;;5031962;28;20025;-77
2023/08/09 14:34:39;;;;;;;1.08;0.70;;;;;;;;;;5027975;28;20048;-78
2023/08/09 14:37:08;;;;;;;1.73;1.13;;;;;;;;;;5023203;28;20432;-77
2023/08/09 14:39:38;;;;;;;1.83;0.88;;;;;;;;;;5043959;28;20515;-77
2023/08/09 14:42:08;;;;;;;2.50;1.08;;;;;;;;;;5033774;28;20034;-76
2023/08/09 14:44:36;;;;;;;3.10;1.77;;;;;;;;;;5040236;28;20029;-77
2023/08/09 14:47:02;;;;;;;1.42;1.10;;;;;;;;;;5039839;28;20049;-77
2023/08/09 14:49:31;;;;;;;1.90;1.10;;;;;;;;;;5036186;28;20075;-76
2023/08/09 14:51:58;;;;;;;1.58;1.33;;;;;;;;;;5040598;28;20033;-78
2023/08/09 14:54:28;;;;;;;1.70;1.10;;;;;;;;;;5024444;28;20150;-77
2023/08/09 14:56:54;;;;;;;2.10;1.40;;;;;;;;;;5033190;28;20258;-76
2023/08/09 14:59:24;;;;;;;2.25;1.40;;;;;;;;;;5032258;28;20033;-77
2023/08/09 15:01:53;;;;;;;1.20;0.90;;;;;;;;;;5026973;28;20133;-75
2023/08/09 15:04:22;;;;;;;1.90;1.25;;;;;;;;;;5011368;28;20095;-76
2023/08/09 15:06:48;;;;;;;1.23;0.93;;;;;;;;;;5000901;28;20033;-77
2023/08/09 15:09:28;;;;;;;3.47;1.27;;;;;;;;;;5033760;28;20034;-76
2023/08/09 15:11:55;;;;;;;2.05;0.90;;;;;;;;;;5010471;28;20026;-75
2023/08/09 15:14:21;;;;;;;1.90;1.20;;;;;;;;;;5026522;28;20026;-75
2023/08/09 15:16:53;;;;;;;1.45;1.10;;;;;;;;;;5031983;28;20462;-76
2023/08/09 15:19:22;;;;;;;1.83;1.00;;;;;;;;;;5021178;28;20569;-79
2023/08/09 15:21:48;;;;;;;2.63;1.38;;;;;;;;;;5011951;28;20532;-77
2023/08/09 15:24:14;;;;;;;1.30;1.02;;;;;;;;;;5009375;28;20045;-76
2023/08/09 15:26:40;;;;;;;3.50;1.38;;;;;;;;;;5028204;28;20094;-76
2023/08/09 15:29:06;;;;;;;2.30;0.80;;;;;;;;;;5006435;28;20022;-78
2023/08/09 15:31:35;;;;;;;3.30;1.63;;;;;;;;;;5024579;28;20487;-76
2023/08/09 15:34:04;;;;;;;1.70;1.17;;;;;;;;;;5041916;28;20142;-77
2023/08/09 15:36:30;;;;;;;2.60;0.93;;;;;;;;;;5019301;28;20098;-79
2023/08/09 15:39:02;;;;;;;4.38;2.00;;;;;;;;;;5027356;28;20032;-76
2023/08/09 15:41:28;;;;;;;4.25;1.40;;;;;;;;;;5022347;28;20056;-76
2023/08/09 15:43:54;;;;;;;2.78;1.30;;;;;;;;;;5033481;28;20143;-77
2023/08/09 15:46:20;;;;;;;2.72;1.17;;;;;;;;;;5020058;28;20025;-78
2023/08/09 15:48:46;;;;;;;3.03;1.73;;;;;;;;;;5028636;28;20088;-76
2023/08/09 15:51:16;;;;;;;1.77;0.90;;;;;;;;;;5011572;28;20700;-77
2023/08/09 15:53:45;;;;;;;1.50;1.10;;;;;;;;;;5013371;28;20080;-76
2023/08/09 15:56:11;;;;;;;2.42;1.00;;;;;;;;;;5047040;28;20055;-77
2023/08/09 15:58:37;;;;;;;1.45;1.00;;;;;;;;;;5047617;28;20033;-81
2023/08/09 16:01:04;;;;;;;1.80;1.10;;;;;;;;;;5046997;28;20144;-77
2023/08/09 16:03:30;;;;;;;2.55;0.73;;;;;;;;;;5030518;28;20029;-76
2023/08/09 16:05:56;;;;;;;1.58;1.20;;;;;;;;;;5028689;28;20030;-78
2023/08/09 16:08:24;;;;;;;1.90;1.30;;;;;;;;;;5046662;28;20021;-76
2023/08/09 16:10:52;;;;;;;2.45;1.00;;;;;;;;;;5032986;28;20037;-75
2023/08/09 16:13:18;;;;;;;1.88;0.90;;;;;;;;;;5033365;28;20025;-76
2023/08/09 16:15:45;;;;;;;1.95;1.17;;;;;;;;;;5054188;28;20488;-76
2023/08/09 16:18:10;;;;;;;1.77;1.35;;;;;;;;;;5048913;28;20033;-78
2023/08/09 16:20:38;;;;;;;1.75;1.20;;;;;;;;;;5043157;28;20036;-75
2023/08/09 16:23:05;;;;;;;2.92;0.90;;;;;;;;;;5027828;28;20032;-77
2023/08/09 16:25:32;;;;;;;2.90;0.90;;;;;;;;;;5037458;28;20041;-78